createdAt,value
2017-11-13T00:01:01.593Z,64.61
2017-11-13T00:02:10.422Z,64.23
2017-11-13T00:03:19.243Z,64.52
2017-11-13T00:04:28.065Z,64.14
2017-11-13T00:05:36.892Z,64.23
2017-11-13T00:06:45.820Z,64.14
2017-11-13T00:07:54.645Z,64.23
2017-11-13T00:09:03.469Z,64.33
2017-11-13T00:10:12.293Z,64.33
2017-11-13T00:11:21.118Z,63.85
2017-11-13T00:12:30.049Z,64.23
2017-11-13T00:13:38.870Z,64.14
2017-11-13T00:14:47.696Z,64.42
2017-11-13T00:15:56.522Z,64.14
2017-11-13T00:17:05.350Z,64.33
2017-11-13T00:18:14.277Z,63.95
2017-11-13T00:19:23.101Z,63.95
2017-11-13T00:20:31.929Z,63.95
2017-11-13T00:21:40.751Z,63.67
2017-11-13T00:22:49.577Z,63.57
2017-11-13T00:23:58.561Z,63.76
2017-11-13T00:25:07.378Z,63.95
2017-11-13T00:26:16.202Z,63.95
2017-11-13T00:27:25.027Z,63.95
2017-11-13T00:28:33.854Z,63.85
2017-11-13T00:29:42.778Z,63.76
2017-11-13T00:30:51.604Z,64.04
2017-11-13T00:32:00.774Z,64.14
2017-11-13T00:33:09.599Z,64.04
2017-11-13T00:34:18.424Z,63.95
2017-11-13T00:35:27.399Z,63.85
2017-11-13T00:36:36.227Z,63.95
2017-11-13T00:37:45.104Z,63.95
2017-11-13T00:38:53.932Z,63.79
2017-11-13T00:40:02.756Z,64.08
2017-11-13T00:41:11.678Z,63.85
2017-11-13T00:42:20.503Z,63.85
2017-11-13T00:43:29.329Z,63.98
2017-11-13T00:44:38.154Z,63.98
2017-11-13T00:45:47.331Z,63.79
2017-11-13T00:46:56.496Z,63.7
2017-11-13T00:48:05.672Z,63.98
2017-11-13T00:49:14.492Z,63.89
2017-11-13T00:50:23.319Z,64.27
2017-11-13T00:51:32.149Z,63.98
2017-11-13T00:52:41.122Z,64.08
2017-11-13T00:53:49.948Z,63.98
2017-11-13T00:54:58.776Z,63.89
2017-11-13T00:56:07.946Z,63.98
2017-11-13T00:57:16.770Z,63.98
2017-11-13T00:58:25.596Z,63.89
2017-11-13T00:59:34.421Z,63.57
2017-11-13T01:00:43.249Z,63.85
2017-11-13T01:01:52.080Z,63.48
2017-11-13T01:03:01.257Z,63.29
2017-11-13T01:04:10.333Z,62.47
2017-11-13T01:05:19.158Z,62.47
2017-11-13T01:06:27.984Z,62.53
2017-11-13T01:07:36.809Z,62.53
2017-11-13T01:08:45.636Z,62.43
2017-11-13T01:09:54.463Z,62.72
2017-11-13T01:11:03.289Z,62.43
2017-11-13T01:12:12.115Z,62.43
2017-11-13T01:13:20.940Z,62.43
2017-11-13T01:14:29.765Z,62.62
2017-11-13T01:15:38.739Z,62.43
2017-11-13T01:16:47.564Z,62.53
2017-11-13T01:17:56.388Z,62.62
2017-11-13T01:19:05.211Z,62.72
2017-11-13T01:20:14.036Z,62.43
2017-11-13T01:21:23.306Z,62.24
2017-11-13T01:22:32.480Z,62.34
2017-11-13T01:23:41.299Z,62.91
2017-11-13T01:24:50.128Z,62.43
2017-11-13T01:25:58.952Z,62.91
2017-11-13T01:27:08.276Z,62.43
2017-11-13T01:28:17.103Z,63.04
2017-11-13T01:29:25.930Z,62.43
2017-11-13T01:30:34.755Z,62.72
2017-11-13T01:31:43.582Z,63.2
2017-11-13T01:32:52.708Z,63.67
2017-11-13T01:34:01.532Z,63.57
2017-11-13T01:35:10.703Z,63.1
2017-11-13T01:36:19.531Z,63.67
2017-11-13T01:37:28.355Z,63.29
2017-11-13T01:38:37.623Z,63.76
2017-11-13T01:39:46.448Z,63.2
2017-11-13T01:40:55.617Z,63.29
2017-11-13T01:42:04.441Z,63.2
2017-11-13T01:43:13.273Z,63.2
2017-11-13T01:44:22.144Z,62.91
2017-11-13T01:45:31.681Z,63.29
2017-11-13T01:46:40.605Z,62.91
2017-11-13T01:47:49.429Z,62.82
2017-11-13T01:48:58.255Z,63.1
2017-11-13T01:50:07.081Z,62.91
2017-11-13T01:51:15.908Z,63.39
2017-11-13T01:52:24.732Z,62.62
2017-11-13T01:53:33.559Z,62.72
2017-11-13T01:54:42.385Z,62.72
2017-11-13T01:55:51.211Z,62.62
2017-11-13T01:57:00.036Z,62.53
2017-11-13T01:58:08.860Z,62.91
2017-11-13T01:59:17.684Z,62.34
2017-11-13T02:00:26.512Z,62.43
2017-11-13T02:01:35.340Z,62.24
2017-11-13T02:02:44.163Z,62.34
2017-11-13T02:03:52.990Z,62.53
2017-11-13T02:05:01.813Z,62.15
2017-11-13T02:06:10.637Z,62.37
2017-11-13T02:07:19.712Z,61.87
2017-11-13T02:08:28.538Z,62.15
2017-11-13T02:09:37.365Z,62.05
2017-11-13T02:10:46.239Z,61.77
2017-11-13T02:11:55.065Z,62.15
2017-11-13T02:13:03.991Z,60.83
2017-11-13T02:14:12.816Z,60.95
2017-11-13T02:15:22.005Z,61.3
2017-11-13T02:16:30.832Z,61.14
2017-11-13T02:17:39.660Z,61.11
2017-11-13T02:18:49.128Z,61.49
2017-11-13T02:19:57.951Z,61.02
2017-11-13T02:21:06.778Z,61.58
2017-11-13T02:22:15.606Z,61.49
2017-11-13T02:23:24.429Z,61.58
2017-11-13T02:24:33.406Z,61.49
2017-11-13T02:25:42.230Z,61.4
2017-11-13T02:26:51.069Z,61.4
2017-11-13T02:27:59.885Z,61.4
2017-11-13T02:29:08.713Z,61.3
2017-11-13T02:30:17.836Z,61.11
2017-11-13T02:31:26.663Z,61.11
2017-11-13T02:32:35.491Z,60.92
2017-11-13T02:33:44.667Z,61.21
2017-11-13T02:34:53.485Z,61.21
2017-11-13T02:36:02.411Z,60.73
2017-11-13T02:37:11.583Z,61.02
2017-11-13T02:38:20.410Z,61.3
2017-11-13T02:39:29.233Z,61.11
2017-11-13T02:40:38.070Z,61.02
2017-11-13T02:41:47.535Z,61.11
2017-11-13T02:42:56.359Z,61.11
2017-11-13T02:44:05.186Z,61.11
2017-11-13T02:45:14.014Z,60.83
2017-11-13T02:46:22.889Z,60.73
2017-11-13T02:47:31.777Z,60.73
2017-11-13T02:48:40.952Z,61.11
2017-11-13T02:49:49.780Z,61.02
2017-11-13T02:50:58.605Z,60.64
2017-11-13T02:52:07.430Z,61.21
2017-11-13T02:53:16.701Z,61.11
2017-11-13T02:54:25.529Z,61.02
2017-11-13T02:55:34.356Z,60.92
2017-11-13T02:56:43.185Z,61.02
2017-11-13T02:57:52.008Z,61.11
2017-11-13T02:59:01.132Z,60.92
2017-11-13T03:00:09.958Z,60.16
2017-11-13T03:01:18.783Z,60.83
2017-11-13T03:02:27.611Z,60.73
2017-11-13T03:03:36.438Z,60.64
2017-11-13T03:04:45.261Z,60.64
2017-11-13T03:05:54.087Z,60.44
2017-11-13T03:07:02.915Z,60.64
2017-11-13T03:08:11.739Z,60.83
2017-11-13T03:09:20.911Z,60.16
2017-11-13T03:10:30.037Z,60.28
2017-11-13T03:11:38.863Z,60.25
2017-11-13T03:12:47.688Z,60.16
2017-11-13T03:13:56.514Z,60.64
2017-11-13T03:15:05.338Z,60.16
2017-11-13T03:16:14.464Z,60.25
2017-11-13T03:17:23.289Z,60.16
2017-11-13T03:18:32.114Z,60.25
2017-11-13T03:19:40.939Z,60.25
2017-11-13T03:20:49.768Z,59.88
2017-11-13T03:21:58.689Z,60.25
2017-11-13T03:23:07.512Z,60.06
2017-11-13T03:24:16.686Z,60.25
2017-11-13T03:25:25.513Z,60.06
2017-11-13T03:26:34.340Z,59.69
2017-11-13T03:27:43.316Z,59.22
2017-11-13T03:28:52.148Z,59.91
2017-11-13T03:30:00.964Z,59.78
2017-11-13T03:31:09.790Z,59.88
2017-11-13T03:32:18.966Z,59.78
2017-11-13T03:33:27.889Z,59.59
2017-11-13T03:34:36.719Z,59.69
2017-11-13T03:35:45.543Z,59.78
2017-11-13T03:36:54.367Z,59.03
2017-11-13T03:38:03.537Z,59.34
2017-11-13T03:39:12.463Z,59.69
2017-11-13T03:40:21.289Z,59.22
2017-11-13T03:41:30.112Z,59.44
2017-11-13T03:42:39.283Z,58.84
2017-11-13T03:43:48.106Z,59.22
2017-11-13T03:44:56.983Z,59.03
2017-11-13T03:46:05.810Z,58.84
2017-11-13T03:47:14.632Z,59.41
2017-11-13T03:48:23.457Z,58.84
2017-11-13T03:49:32.293Z,59.03
2017-11-13T03:50:41.910Z,59.12
2017-11-13T03:51:50.732Z,59.03
2017-11-13T03:52:59.557Z,59.22
2017-11-13T03:54:08.383Z,58.26
2017-11-13T03:55:17.211Z,59.03
2017-11-13T03:56:26.336Z,59.03
2017-11-13T03:57:35.162Z,59.12
2017-11-13T03:58:43.989Z,59.22
2017-11-13T03:59:52.814Z,58.36
2017-11-13T04:01:01.637Z,58.93
2017-11-13T04:02:10.712Z,58.84
2017-11-13T04:03:19.536Z,58.65
2017-11-13T04:04:28.362Z,59.12
2017-11-13T04:05:37.187Z,58.74
2017-11-13T04:06:46.011Z,58.84
2017-11-13T04:07:55.238Z,59.03
2017-11-13T04:09:04.065Z,58.65
2017-11-13T04:10:12.888Z,58.84
2017-11-13T04:11:21.713Z,59.22
2017-11-13T04:12:30.538Z,58.93
2017-11-13T04:13:39.464Z,59.31
2017-11-13T04:14:48.288Z,59.69
2017-11-13T04:15:57.117Z,59.88
2017-11-13T04:17:06.351Z,59.78
2017-11-13T04:18:16.221Z,59.78
2017-11-13T04:19:25.249Z,60.06
2017-11-13T04:20:34.091Z,60.06
2017-11-13T04:21:42.903Z,60.25
2017-11-13T04:22:51.726Z,60.25
2017-11-13T04:24:00.551Z,60.54
2017-11-13T04:25:09.725Z,60.73
2017-11-13T04:26:18.550Z,60.54
2017-11-13T04:27:27.375Z,61.21
2017-11-13T04:28:36.547Z,61.11
2017-11-13T04:29:45.373Z,61.68
2017-11-13T04:30:54.352Z,61.87
2017-11-13T04:32:03.179Z,61.87
2017-11-13T04:33:12.003Z,62.43
2017-11-13T04:34:20.828Z,62.53
2017-11-13T04:35:29.655Z,62.91
2017-11-13T04:36:39.032Z,62.91
2017-11-13T04:37:47.857Z,63.39
2017-11-13T04:38:56.681Z,63.1
2017-11-13T04:40:05.514Z,63.48
2017-11-13T04:41:14.339Z,63.48
2017-11-13T04:42:23.555Z,63.76
2017-11-13T04:43:32.726Z,63.95
2017-11-13T04:44:41.551Z,64.33
2017-11-13T04:45:50.374Z,64.33
2017-11-13T04:46:59.199Z,64.42
2017-11-13T04:48:08.226Z,63.95
2017-11-13T04:49:17.050Z,64.14
2017-11-13T04:50:25.876Z,64.04
2017-11-13T04:51:34.706Z,63.82
2017-11-13T04:52:43.527Z,64.01
2017-11-13T04:53:52.501Z,64.11
2017-11-13T04:55:01.324Z,64.2
2017-11-13T04:56:10.150Z,64.04
2017-11-13T04:57:18.975Z,64.01
2017-11-13T04:58:27.801Z,63.92
2017-11-13T04:59:36.632Z,64.04
2017-11-13T05:00:45.467Z,64.3
2017-11-13T05:01:54.647Z,63.73
2017-11-13T05:03:03.473Z,63.73
2017-11-13T05:04:12.298Z,64.01
2017-11-13T05:05:21.424Z,63.85
2017-11-13T05:06:30.250Z,64.11
2017-11-13T05:07:39.075Z,64.01
2017-11-13T05:08:47.898Z,63.73
2017-11-13T05:09:56.725Z,63.92
2017-11-13T05:11:05.601Z,62.31
2017-11-13T05:12:14.426Z,62.62
2017-11-13T05:13:23.251Z,63.1
2017-11-13T05:14:32.078Z,62.72
2017-11-13T05:15:40.904Z,62.91
2017-11-13T05:16:49.730Z,62.5
2017-11-13T05:17:58.552Z,62.59
2017-11-13T05:19:07.375Z,61.68
2017-11-13T05:20:16.199Z,62.15
2017-11-13T05:21:25.025Z,62.62
2017-11-13T05:22:34.151Z,62.34
2017-11-13T05:23:42.978Z,62.34
2017-11-13T05:24:51.803Z,62.43
2017-11-13T05:26:00.629Z,62.53
2017-11-13T05:27:09.453Z,62.24
2017-11-13T05:28:18.676Z,62.24
2017-11-13T05:29:27.500Z,62.43
2017-11-13T05:30:36.323Z,62.15
2017-11-13T05:31:45.149Z,62.12
2017-11-13T05:32:53.976Z,62.12
2017-11-13T05:34:02.858Z,62.31
2017-11-13T05:35:12.030Z,62.21
2017-11-13T05:36:21.205Z,62.4
2017-11-13T05:37:30.031Z,62.12
2017-11-13T05:38:38.855Z,62.12
2017-11-13T05:39:47.731Z,62.31
2017-11-13T05:40:56.557Z,62.4
2017-11-13T05:42:05.390Z,62.4
2017-11-13T05:43:14.206Z,62.21
2017-11-13T05:44:23.031Z,62.12
2017-11-13T05:45:31.856Z,62.12
2017-11-13T05:46:40.683Z,62.21
2017-11-13T05:47:49.508Z,62.21
2017-11-13T05:48:58.337Z,62.02
2017-11-13T05:50:07.158Z,62.59
2017-11-13T05:51:16.334Z,62.5
2017-11-13T05:52:25.503Z,62.4
2017-11-13T05:53:34.330Z,62.5
2017-11-13T05:54:43.155Z,62.88
2017-11-13T05:55:51.987Z,63.07
2017-11-13T05:57:00.855Z,63.35
2017-11-13T05:58:09.681Z,63.16
2017-11-13T05:59:18.506Z,62.97
2017-11-13T06:00:27.333Z,63.45
2017-11-13T06:01:36.165Z,62.97
2017-11-13T06:02:45.288Z,62.88
2017-11-13T06:03:54.122Z,63.26
2017-11-13T06:05:03.637Z,63.26
2017-11-13T06:06:12.465Z,62.97
2017-11-13T06:07:21.287Z,63.16
2017-11-13T06:08:30.215Z,63.54
2017-11-13T06:09:39.040Z,63.73
2017-11-13T06:10:47.867Z,63.73
2017-11-13T06:11:56.691Z,63.73
2017-11-13T06:13:05.863Z,64.01
2017-11-13T06:14:14.839Z,63.82
2017-11-13T06:15:23.662Z,64.01
2017-11-13T06:16:32.499Z,64.01
2017-11-13T06:17:41.315Z,64.11
2017-11-13T06:18:50.139Z,64.68
2017-11-13T06:19:58.967Z,64.58
2017-11-13T06:21:08.566Z,64.3
2017-11-13T06:22:17.700Z,64.49
2017-11-13T06:23:26.754Z,64.49
2017-11-13T06:24:36.200Z,64.77
2017-11-13T06:25:45.238Z,64.39
2017-11-13T06:26:54.292Z,64.58
2017-11-13T06:28:03.475Z,64.58
2017-11-13T06:29:12.302Z,64.39
2017-11-13T06:30:21.129Z,64.3
2017-11-13T06:31:29.956Z,64.3
2017-11-13T06:32:38.782Z,64.11
2017-11-13T06:33:47.608Z,64.01
2017-11-13T06:34:56.433Z,64.11
2017-11-13T06:36:05.260Z,64.3
2017-11-13T06:37:14.084Z,64.11
2017-11-13T06:38:22.930Z,64.2
2017-11-13T06:39:31.732Z,64.01
2017-11-13T06:40:40.567Z,64.2
2017-11-13T06:41:49.390Z,64.3
2017-11-13T06:42:58.561Z,64.11
2017-11-13T06:44:07.388Z,64.2
2017-11-13T06:45:16.214Z,64.3
2017-11-13T06:46:25.042Z,64.2
2017-11-13T06:47:33.870Z,64.2
2017-11-13T06:48:42.696Z,64.3
2017-11-13T06:49:51.524Z,64.39
2017-11-13T06:51:00.401Z,64.2
2017-11-13T06:52:09.224Z,64.2
2017-11-13T06:53:18.049Z,64.2
2017-11-13T06:54:26.875Z,64.3
2017-11-13T06:55:36.052Z,64.39
2017-11-13T06:56:44.969Z,64.3
2017-11-13T06:57:53.795Z,64.3
2017-11-13T06:59:02.620Z,63.92
2017-11-13T07:00:11.452Z,64.01
2017-11-13T07:01:20.624Z,64.11
2017-11-13T07:02:29.598Z,64.2
2017-11-13T07:03:38.424Z,64.11
2017-11-13T07:04:47.253Z,64.11
2017-11-13T07:05:56.077Z,64.01
2017-11-13T07:07:04.904Z,64.11
2017-11-13T07:08:13.778Z,64.11
2017-11-13T07:09:22.606Z,64.2
2017-11-13T07:10:31.432Z,64.3
2017-11-13T07:11:40.260Z,64.2
2017-11-13T07:12:49.084Z,64.11
2017-11-13T07:13:58.013Z,64.77
2017-11-13T07:15:06.840Z,63.82
2017-11-13T07:16:15.671Z,64.3
2017-11-13T07:17:24.845Z,63.98
2017-11-13T07:18:33.672Z,64.2
2017-11-13T07:19:42.842Z,64.01
2017-11-13T07:20:51.667Z,63.92
2017-11-13T07:22:00.493Z,63.64
2017-11-13T07:23:09.320Z,63.35
2017-11-13T07:24:18.143Z,62.88
2017-11-13T07:25:27.081Z,62.78
2017-11-13T07:26:35.895Z,63.07
2017-11-13T07:27:44.723Z,62.4
2017-11-13T07:28:53.548Z,62.59
2017-11-13T07:30:02.372Z,62.59
2017-11-13T07:31:11.299Z,62.59
2017-11-13T07:32:20.127Z,62.78
2017-11-13T07:33:28.952Z,62.4
2017-11-13T07:34:37.779Z,62.4
2017-11-13T07:35:46.602Z,62.02
2017-11-13T07:36:55.576Z,61.46
2017-11-13T07:38:04.403Z,61.08
2017-11-13T07:39:13.270Z,60.99
2017-11-13T07:40:22.098Z,60.99
2017-11-13T07:41:30.932Z,60.89
2017-11-13T07:42:39.755Z,60.99
2017-11-13T07:43:48.584Z,61.08
2017-11-13T07:44:57.759Z,61.65
2017-11-13T07:46:06.590Z,61.65
2017-11-13T07:47:15.419Z,61.46
2017-11-13T07:48:24.302Z,61.46
2017-11-13T07:49:33.188Z,61.18
2017-11-13T07:50:42.015Z,61.36
2017-11-13T07:51:50.848Z,60.99
2017-11-13T07:52:59.683Z,60.99
2017-11-13T07:54:09.122Z,61.18
2017-11-13T07:55:17.970Z,61.08
2017-11-13T07:56:26.813Z,60.99
2017-11-13T07:57:35.652Z,60.89
2017-11-13T07:58:44.866Z,60.7
2017-11-13T07:59:53.725Z,60.7
2017-11-13T08:01:02.978Z,60.89
2017-11-13T08:02:11.959Z,60.7
2017-11-13T08:03:20.897Z,60.61
2017-11-13T08:04:30.078Z,60.32
2017-11-13T08:05:39.011Z,60.22
2017-11-13T08:06:47.840Z,60.03
2017-11-13T08:07:56.670Z,60.32
2017-11-13T08:09:05.509Z,60.03
2017-11-13T08:10:14.414Z,59.47
2017-11-13T08:11:23.373Z,59.66
2017-11-13T08:12:32.208Z,59.03
2017-11-13T08:13:41.089Z,58.84
2017-11-13T08:14:50.301Z,59.22
2017-11-13T08:15:59.152Z,59.03
2017-11-13T08:17:08.235Z,59.03
2017-11-13T08:18:17.694Z,59.03
2017-11-13T08:19:26.678Z,58.74
2017-11-13T08:20:35.525Z,58.93
2017-11-13T08:21:44.358Z,58.45
2017-11-13T08:22:53.540Z,58.65
2017-11-13T08:24:02.498Z,58.45
2017-11-13T08:25:11.653Z,58.17
2017-11-13T08:26:20.590Z,58.36
2017-11-13T08:27:29.516Z,58.45
2017-11-13T08:28:38.580Z,57.98
2017-11-13T08:29:47.411Z,58.45
2017-11-13T08:30:56.355Z,58.17
2017-11-13T08:32:05.452Z,57.98
2017-11-13T08:33:14.390Z,58.55
2017-11-13T08:34:23.796Z,57.98
2017-11-13T08:35:32.843Z,57.7
2017-11-13T08:36:41.796Z,57.51
2017-11-13T08:37:50.777Z,57.51
2017-11-13T08:38:59.849Z,58.45
2017-11-13T08:40:08.793Z,57.79
2017-11-13T08:41:17.749Z,57.6
2017-11-13T08:42:26.971Z,57.79
2017-11-13T08:43:35.815Z,57.79
2017-11-13T08:44:44.675Z,57.7
2017-11-13T08:45:53.775Z,57.7
2017-11-13T08:47:03.623Z,57.73
2017-11-13T08:48:12.974Z,57.42
2017-11-13T08:49:23.184Z,57.35
2017-11-13T08:50:32.278Z,57.73
2017-11-13T08:51:41.478Z,57.35
2017-11-13T08:52:50.650Z,57.44
2017-11-13T08:53:59.698Z,57.44
2017-11-13T08:55:08.713Z,57.16
2017-11-13T08:56:17.735Z,57.35
2017-11-13T08:57:26.908Z,57.35
2017-11-13T08:58:36.005Z,57.25
2017-11-13T08:59:45.123Z,57.25
2017-11-13T09:00:54.345Z,57.64
2017-11-13T09:02:03.817Z,56.87
2017-11-13T09:03:13.119Z,56.87
2017-11-13T09:04:22.827Z,57.25
2017-11-13T09:05:31.985Z,56.78
2017-11-13T09:06:40.842Z,56.9
2017-11-13T09:07:49.913Z,57.35
2017-11-13T09:08:59.539Z,56.87
2017-11-13T09:10:08.827Z,56.78
2017-11-13T09:11:18.200Z,57.16
2017-11-13T09:12:27.093Z,57.35
2017-11-13T09:13:36.642Z,56.68
2017-11-13T09:14:45.527Z,56.68
2017-11-13T09:15:54.355Z,56.87
2017-11-13T09:17:03.194Z,57.06
2017-11-13T09:18:12.123Z,57.09
2017-11-13T09:19:21.333Z,56.99
2017-11-13T09:20:30.962Z,56.87
2017-11-13T09:21:39.819Z,56.99
2017-11-13T09:22:48.754Z,57.09
2017-11-13T09:23:57.589Z,56.99
2017-11-13T09:25:06.419Z,56.99
2017-11-13T09:26:15.857Z,56.81
2017-11-13T09:27:24.742Z,56.81
2017-11-13T09:28:33.572Z,56.52
2017-11-13T09:29:42.421Z,56.99
2017-11-13T09:30:51.366Z,57.09
2017-11-13T09:32:00.562Z,56.43
2017-11-13T09:33:09.817Z,57.09
2017-11-13T09:34:19.258Z,57.09
2017-11-13T09:35:28.121Z,56.9
2017-11-13T09:36:36.964Z,56.81
2017-11-13T09:37:45.802Z,56.62
2017-11-13T09:38:54.651Z,56.9
2017-11-13T09:40:03.831Z,57.09
2017-11-13T09:41:13.078Z,56.71
2017-11-13T09:42:22.088Z,57.31
2017-11-13T09:43:31.073Z,58.45
2017-11-13T09:44:39.914Z,58.61
2017-11-13T09:45:48.757Z,58.64
2017-11-13T09:46:57.649Z,57.85
2017-11-13T09:48:06.518Z,57.98
2017-11-13T09:49:16.790Z,57.76
2017-11-13T09:50:26.021Z,57.85
2017-11-13T09:51:34.872Z,57.31
2017-11-13T09:52:43.744Z,57.69
2017-11-13T09:53:52.578Z,57.21
2017-11-13T09:55:01.757Z,57.31
2017-11-13T09:56:10.689Z,57.5
2017-11-13T09:57:20.083Z,57.88
2017-11-13T09:58:29.306Z,57.98
2017-11-13T09:59:38.144Z,57.98
2017-11-13T10:00:47.166Z,57.98
2017-11-13T10:01:56.065Z,57.5
2017-11-13T10:03:05.380Z,57.31
2017-11-13T10:04:14.530Z,60.35
2017-11-13T10:05:23.378Z,59.97
2017-11-13T10:06:32.460Z,60.25
2017-11-13T10:07:41.444Z,59.78
2017-11-13T10:08:50.512Z,59.68
2017-11-13T10:09:59.903Z,60.38
2017-11-13T10:11:08.754Z,60.25
2017-11-13T10:12:17.705Z,62.62
2017-11-13T10:13:26.900Z,62.56
2017-11-13T10:14:35.760Z,62.56
2017-11-13T10:15:44.844Z,61.99
2017-11-13T10:16:53.891Z,62.66
2017-11-13T10:18:02.793Z,61.99
2017-11-13T10:19:12.051Z,61.61
2017-11-13T10:20:21.379Z,61.9
2017-11-13T10:21:30.266Z,63.23
2017-11-13T10:22:39.521Z,65.22
2017-11-13T10:23:48.638Z,63.42
2017-11-13T10:24:57.818Z,64.84
2017-11-13T10:26:07.376Z,65.12
2017-11-13T10:27:16.651Z,64.17
2017-11-13T10:28:25.573Z,63.51
2017-11-13T10:29:34.933Z,62.75
2017-11-13T10:30:43.825Z,62.94
2017-11-13T10:31:52.666Z,62.66
2017-11-13T10:33:01.617Z,62.66
2017-11-13T10:34:10.561Z,63.23
2017-11-13T10:35:19.914Z,62.66
2017-11-13T10:36:29.318Z,64.27
2017-11-13T10:37:38.362Z,61.52
2017-11-13T10:38:47.819Z,62.66
2017-11-13T10:39:57.604Z,63.42
2017-11-13T10:41:06.992Z,63.6
2017-11-13T10:42:16.270Z,66.36
2017-11-13T10:43:25.272Z,65.73
2017-11-13T10:44:34.339Z,69.24
2017-11-13T10:45:43.243Z,68.29
2017-11-13T10:46:52.596Z,68.48
2017-11-13T10:48:01.438Z,71.52
2017-11-13T10:49:10.336Z,70.29
2017-11-13T10:50:19.307Z,67.25
2017-11-13T10:51:28.616Z,68.58
2017-11-13T10:52:37.682Z,68.67
2017-11-13T10:53:46.565Z,68.39
2017-11-13T10:54:55.396Z,66.2
2017-11-13T10:56:04.246Z,68.58
2017-11-13T10:57:13.457Z,66.67
2017-11-13T10:58:23.897Z,66.67
2017-11-13T10:59:32.782Z,65.92
2017-11-13T11:00:41.981Z,67.82
2017-11-13T11:01:50.937Z,69.24
2017-11-13T11:02:59.775Z,70.67
2017-11-13T11:04:08.768Z,70.1
2017-11-13T11:05:17.827Z,70.19
2017-11-13T11:06:26.690Z,76.18
2017-11-13T11:07:35.542Z,74.85
2017-11-13T11:08:44.375Z,74.94
2017-11-13T11:09:53.511Z,71.04
2017-11-13T11:11:02.347Z,69.53
2017-11-13T11:12:11.178Z,74.18
2017-11-13T11:13:20.033Z,73.08
2017-11-13T11:14:28.865Z,75.36
2017-11-13T11:15:37.965Z,80.21
2017-11-13T11:16:46.801Z,82.2
2017-11-13T11:17:55.637Z,81.63
2017-11-13T11:19:04.870Z,87.52
2017-11-13T11:20:13.899Z,73.74
2017-11-13T11:21:22.989Z,86.1
2017-11-13T11:22:31.830Z,83.44
2017-11-13T11:23:40.681Z,75.64
2017-11-13T11:24:49.497Z,77.36
2017-11-13T11:25:58.345Z,79.16
2017-11-13T11:27:07.625Z,74.12
2017-11-13T11:28:16.874Z,86.1
2017-11-13T11:29:25.714Z,88.38
2017-11-13T11:30:34.555Z,89.61
2017-11-13T11:31:43.458Z,85.91
2017-11-13T11:32:52.642Z,79.06
2017-11-13T11:34:01.568Z,81.16
2017-11-13T11:35:10.479Z,87.71
2017-11-13T11:36:19.589Z,96.65
2017-11-13T11:37:28.420Z,95.32
2017-11-13T11:38:37.357Z,87.76
2017-11-13T11:39:46.427Z,85.95
2017-11-13T11:40:55.291Z,91.85
2017-11-13T11:42:04.128Z,96.6
2017-11-13T11:43:13.454Z,88.8
2017-11-13T11:44:22.681Z,94.98
2017-11-13T11:45:32.217Z,99.99
2017-11-13T11:46:41.135Z,99.36
2017-11-13T11:47:50.127Z,99.99
2017-11-13T11:48:59.019Z,98.12
2017-11-13T11:50:08.151Z,99.99
2017-11-13T11:51:17.234Z,99.99
2017-11-13T11:52:26.107Z,96.12
2017-11-13T11:53:34.956Z,99.99
2017-11-13T11:54:43.790Z,99.99
2017-11-13T11:55:52.828Z,91.56
2017-11-13T11:57:02.018Z,99.99
2017-11-13T11:58:10.868Z,99.99
2017-11-13T11:59:19.713Z,99.99
2017-11-13T12:00:28.549Z,95.94
2017-11-13T12:01:37.866Z,92.84
2017-11-13T12:02:47.634Z,98.36
2017-11-13T12:03:56.789Z,99.99
2017-11-13T12:05:05.721Z,99.12
2017-11-13T12:06:14.855Z,99.99
2017-11-13T12:07:24.265Z,99.99
2017-11-13T12:08:33.106Z,99.41
2017-11-13T12:09:42.300Z,98.83
2017-11-13T12:10:51.138Z,98.17
2017-11-13T12:11:59.985Z,99.69
2017-11-13T12:13:08.868Z,99.99
2017-11-13T12:14:17.700Z,99.99
2017-11-13T12:15:26.547Z,99.99
2017-11-13T12:16:35.393Z,99.99
2017-11-13T12:17:44.798Z,99.99
2017-11-13T12:18:53.729Z,99.99
2017-11-13T12:20:02.586Z,99.99
2017-11-13T12:21:11.442Z,99.99
2017-11-13T12:22:20.273Z,99.6
2017-11-13T12:23:29.101Z,99.99
2017-11-13T12:24:38.083Z,99.99
2017-11-13T12:25:46.965Z,99.99
2017-11-13T12:26:55.810Z,99.99
2017-11-13T12:28:04.661Z,99.99
2017-11-13T12:29:13.552Z,99.99
2017-11-13T12:30:22.513Z,99.99
2017-11-13T12:31:31.693Z,99.99
2017-11-13T12:32:40.535Z,99.99
2017-11-13T12:33:49.728Z,99.99
2017-11-13T12:34:58.567Z,99.99
2017-11-13T12:36:08.021Z,99.99
2017-11-13T12:37:17.218Z,99.99
2017-11-13T12:38:26.051Z,99.99
2017-11-13T12:39:34.885Z,99.99
2017-11-13T12:40:43.723Z,99.99
2017-11-13T12:41:52.655Z,99.99
2017-11-13T12:43:01.836Z,99.99
2017-11-13T12:44:10.685Z,99.99
2017-11-13T12:45:19.517Z,99.99
2017-11-13T12:46:28.348Z,99.99
2017-11-13T12:47:37.632Z,99.99
2017-11-13T12:48:46.473Z,99.99
2017-11-13T12:49:55.307Z,99.99
2017-11-13T12:51:04.140Z,99.99
2017-11-13T12:52:13.100Z,99.99
2017-11-13T12:53:22.021Z,99.99
2017-11-13T12:54:30.881Z,99.99
2017-11-13T12:55:39.710Z,99.99
2017-11-13T12:56:48.544Z,99.99
2017-11-13T12:57:57.383Z,99.99
2017-11-13T12:59:06.227Z,99.99
2017-11-13T13:00:15.761Z,99.99
2017-11-13T13:01:24.951Z,99.99
2017-11-13T13:02:33.786Z,99.99
2017-11-13T13:03:42.618Z,99.99
2017-11-13T13:04:51.503Z,99.99
2017-11-13T13:06:00.338Z,99.99
2017-11-13T13:07:09.528Z,99.99
2017-11-13T13:08:18.362Z,99.99
2017-11-13T13:09:27.219Z,99.99
2017-11-13T13:10:36.103Z,99.99
2017-11-13T13:11:44.940Z,99.99
2017-11-13T13:12:53.785Z,99.99
2017-11-13T13:14:02.635Z,99.99
2017-11-13T13:15:11.471Z,99.99
2017-11-13T13:16:20.511Z,99.99
2017-11-13T13:17:29.345Z,99.99
2017-11-13T13:18:38.181Z,99.99
2017-11-13T13:19:47.025Z,99.99
2017-11-13T13:20:55.888Z,99.99
2017-11-13T13:22:05.219Z,99.99
2017-11-13T13:23:14.437Z,99.99
2017-11-13T13:24:23.303Z,99.99
2017-11-13T13:25:32.139Z,99.99
2017-11-13T13:26:40.986Z,99.99
2017-11-13T13:27:49.870Z,99.99
2017-11-13T13:28:58.716Z,99.99
2017-11-13T13:30:07.570Z,99.99
2017-11-13T13:31:16.601Z,99.99
2017-11-13T13:32:25.813Z,99.99
2017-11-13T13:33:34.718Z,99.99
2017-11-13T13:34:43.569Z,99.99
2017-11-13T13:35:52.418Z,99.99
2017-11-13T13:37:01.261Z,99.99
2017-11-13T13:38:10.165Z,99.99
2017-11-13T13:39:19.119Z,99.99
2017-11-13T13:40:28.326Z,99.99
2017-11-13T13:41:37.604Z,99.99
2017-11-13T13:42:46.525Z,99.99
2017-11-13T13:43:55.366Z,99.99
2017-11-13T13:45:04.257Z,99.99
2017-11-13T13:46:13.160Z,99.99
2017-11-13T13:47:22.196Z,99.99
2017-11-13T13:48:31.114Z,99.99
2017-11-13T13:49:40.016Z,99.99
2017-11-13T13:50:49.040Z,99.99
2017-11-13T13:51:57.902Z,99.99
2017-11-13T13:53:06.745Z,99.99
2017-11-13T13:54:15.858Z,99.99
2017-11-13T13:55:24.901Z,99.99
2017-11-13T13:56:33.834Z,99.99
2017-11-13T13:57:42.717Z,99.99
2017-11-13T13:58:51.569Z,99.99
2017-11-13T14:00:00.410Z,99.99
2017-11-13T14:01:09.390Z,99.99
2017-11-13T14:02:18.567Z,99.99
2017-11-13T14:03:27.568Z,99.99
2017-11-13T14:04:36.411Z,99.99
2017-11-13T14:05:45.663Z,99.99
2017-11-13T14:06:54.512Z,99.99
2017-11-13T14:08:03.376Z,99.99
2017-11-13T14:09:12.771Z,99.99
2017-11-13T14:10:22.212Z,99.99
2017-11-13T14:11:31.128Z,99.99
2017-11-13T14:12:40.019Z,99.99
2017-11-13T14:13:48.996Z,99.99
2017-11-13T14:14:58.189Z,99.99
2017-11-13T14:16:07.027Z,99.99
2017-11-13T14:17:15.877Z,99.99
2017-11-13T14:18:24.712Z,99.99
2017-11-13T14:19:33.550Z,99.99
2017-11-13T14:20:42.387Z,99.99
2017-11-13T14:21:51.226Z,99.99
2017-11-13T14:23:00.091Z,99.99
2017-11-13T14:24:08.934Z,99.99
2017-11-13T14:25:18.103Z,99.99
2017-11-13T14:26:26.987Z,99.99
2017-11-13T14:27:35.923Z,99.99
2017-11-13T14:28:44.925Z,99.99
2017-11-13T14:29:53.928Z,99.99
2017-11-13T14:31:03.085Z,99.99
2017-11-13T14:32:12.440Z,99.99
2017-11-13T14:33:21.635Z,99.99
2017-11-13T14:34:30.508Z,99.99
2017-11-13T14:35:39.340Z,99.99
2017-11-13T14:36:48.336Z,99.99
2017-11-13T14:37:57.193Z,99.99
2017-11-13T14:39:06.040Z,99.99
2017-11-13T14:40:15.056Z,99.99
2017-11-13T14:41:23.953Z,99.99
2017-11-13T14:42:33.009Z,99.99
2017-11-13T14:43:41.928Z,99.99
2017-11-13T14:44:50.802Z,99.99
2017-11-13T14:45:59.741Z,99.99
2017-11-13T14:47:08.646Z,99.99
2017-11-13T14:48:17.581Z,99.99
2017-11-13T14:49:26.422Z,99.99
2017-11-13T14:50:35.307Z,99.99
2017-11-13T14:51:44.140Z,99.99